Padborg, Denmark
Current Conditions -  °F | °C
As of 8:20 AM on Wednesday 26 Nov 2014 (Local Time) from ETGG Reporting Station
Broken Clouds Broken Clouds  
Wind Chill: 31°   Ceiling: 2200
Heat Index: 37°   Visibility: 5mi
Dew Point: 36°   Wind: 9mph
Humidity: 93%   Direction: 130°SE
Pressure: 30.24"   Gusts: NA
Location:  54.83°N, 9.36°E
Report Text: ETGG 260720Z 13008KT 8000 BKN022 03/02 Q1024 WHT
Loading
Personal Weather Stations






























Interactive Weather Map New forecast layout! Learn more

10-Day Weather Forecast

Advertisements
Track Severe Weather on mobile